sensor_id;sensor_type;location;lat;lon;timestamp;pressure;altitude;pressure_sealevel;temperature;humidity
57250;BME280;43102;52.014;-0.680;2023-02-28T00:00:00;102473;;;4.76;72.70
57250;BME280;43102;52.014;-0.680;2023-02-28T00:01:00;102473;;;4.76;72.70
57250;BME280;43102;52.014;-0.680;2023-02-28T00:02:00;102473;;;4.76;72.70
57250;BME280;43102;52.014;-0.680;2023-02-28T00:03:00;102473;;;4.76;72.70
57250;BME280;43102;52.014;-0.680;2023-02-28T00:04:00;102466;;;4.75;72.69
57250;BME280;43102;52.014;-0.680;2023-02-28T00:05:00;102466;;;4.75;72.69
57250;BME280;43102;52.014;-0.680;2023-02-28T00:06:02;102466;;;4.75;72.69
57250;BME280;43102;52.014;-0.680;2023-02-28T00:07:00;102466;;;4.75;72.69
57250;BME280;43102;52.014;-0.680;2023-02-28T00:08:00;102466;;;4.75;72.69
57250;BME280;43102;52.014;-0.680;2023-02-28T00:09:00;102459;;;4.69;72.75
57250;BME280;43102;52.014;-0.680;2023-02-28T00:10:00;102459;;;4.69;72.75
57250;BME280;43102;52.014;-0.680;2023-02-28T00:11:00;102459;;;4.69;72.75
57250;BME280;43102;52.014;-0.680;2023-02-28T00:12:00;102459;;;4.69;72.75
57250;BME280;43102;52.014;-0.680;2023-02-28T00:13:01;102459;;;4.69;72.75
57250;BME280;43102;52.014;-0.680;2023-02-28T00:14:00;102458;;;4.63;72.83
57250;BME280;43102;52.014;-0.680;2023-02-28T00:15:00;102458;;;4.63;72.83
57250;BME280;43102;52.014;-0.680;2023-02-28T00:16:02;102458;;;4.63;72.83
57250;BME280;43102;52.014;-0.680;2023-02-28T00:17:00;102458;;;4.63;72.83
57250;BME280;43102;52.014;-0.680;2023-02-28T00:18:01;102458;;;4.63;72.83
57250;BME280;43102;52.014;-0.680;2023-02-28T00:19:00;102461;;;4.64;72.97
57250;BME280;43102;52.014;-0.680;2023-02-28T00:20:00;102461;;;4.64;72.97
57250;BME280;43102;52.014;-0.680;2023-02-28T00:21:00;102461;;;4.64;72.97
57250;BME280;43102;52.014;-0.680;2023-02-28T00:22:00;102461;;;4.64;72.97
57250;BME280;43102;52.014;-0.680;2023-02-28T00:23:00;102461;;;4.64;72.97
57250;BME280;43102;52.014;-0.680;2023-02-28T00:24:00;102468;;;4.72;73.17
57250;BME280;43102;52.014;-0.680;2023-02-28T00:25:00;102468;;;4.72;73.17
57250;BME280;43102;52.014;-0.680;2023-02-28T00:26:00;102468;;;4.72;73.17
57250;BME280;43102;52.014;-0.680;2023-02-28T00:27:00;102468;;;4.72;73.17
57250;BME280;43102;52.014;-0.680;2023-02-28T00:28:00;102468;;;4.72;73.17
57250;BME280;43102;52.014;-0.680;2023-02-28T00:29:00;102467;;;4.75;73.34
57250;BME280;43102;52.014;-0.680;2023-02-28T00:30:00;102467;;;4.75;73.34
57250;BME280;43102;52.014;-0.680;2023-02-28T00:31:00;102467;;;4.75;73.34
57250;BME280;43102;52.014;-0.680;2023-02-28T00:32:00;102467;;;4.75;73.34
57250;BME280;43102;52.014;-0.680;2023-02-28T00:33:00;102467;;;4.75;73.34
57250;BME280;43102;52.014;-0.680;2023-02-28T00:34:00;102466;;;4.75;73.52
57250;BME280;43102;52.014;-0.680;2023-02-28T00:35:00;102466;;;4.75;73.52
57250;BME280;43102;52.014;-0.680;2023-02-28T00:36:02;102466;;;4.75;73.52
57250;BME280;43102;52.014;-0.680;2023-02-28T00:37:00;102466;;;4.75;73.52
57250;BME280;43102;52.014;-0.680;2023-02-28T00:38:00;102466;;;4.75;73.52
57250;BME280;43102;52.014;-0.680;2023-02-28T00:39:00;102474;;;4.75;73.63
57250;BME280;43102;52.014;-0.680;2023-02-28T00:40:00;102474;;;4.75;73.63
57250;BME280;43102;52.014;-0.680;2023-02-28T00:41:00;102474;;;4.75;73.63
57250;BME280;43102;52.014;-0.680;2023-02-28T00:42:00;102474;;;4.75;73.63
57250;BME280;43102;52.014;-0.680;2023-02-28T00:43:00;102474;;;4.75;73.63
57250;BME280;43102;52.014;-0.680;2023-02-28T00:44:00;102476;;;4.81;73.86
57250;BME280;43102;52.014;-0.680;2023-02-28T00:45:00;102476;;;4.81;73.86
57250;BME280;43102;52.014;-0.680;2023-02-28T00:46:00;102476;;;4.81;73.86
57250;BME280;43102;52.014;-0.680;2023-02-28T00:47:00;102476;;;4.81;73.86
57250;BME280;43102;52.014;-0.680;2023-02-28T00:48:00;102476;;;4.81;73.86
57250;BME280;43102;52.014;-0.680;2023-02-28T00:49:00;102478;;;4.84;73.90
57250;BME280;43102;52.014;-0.680;2023-02-28T00:50:00;102478;;;4.84;73.90
57250;BME280;43102;52.014;-0.680;2023-02-28T00:51:00;102478;;;4.84;73.90
57250;BME280;43102;52.014;-0.680;2023-02-28T00:52:00;102478;;;4.84;73.90
57250;BME280;43102;52.014;-0.680;2023-02-28T00:53:00;102478;;;4.84;73.90
57250;BME280;43102;52.014;-0.680;2023-02-28T00:54:00;102478;;;4.88;74.00
57250;BME280;43102;52.014;-0.680;2023-02-28T00:55:00;102478;;;4.88;74.00
57250;BME280;43102;52.014;-0.680;2023-02-28T00:56:00;102478;;;4.88;74.00
57250;BME280;43102;52.014;-0.680;2023-02-28T00:57:00;102478;;;4.88;74.00
57250;BME280;43102;52.014;-0.680;2023-02-28T00:58:00;102478;;;4.88;74.00
57250;BME280;43102;52.014;-0.680;2023-02-28T00:59:00;102484;;;4.94;74.13
57250;BME280;43102;52.014;-0.680;2023-02-28T01:00:00;102484;;;4.94;74.13
57250;BME280;43102;52.014;-0.680;2023-02-28T01:01:00;102484;;;4.94;74.13
57250;BME280;43102;52.014;-0.680;2023-02-28T01:02:00;102484;;;4.94;74.13
57250;BME280;43102;52.014;-0.680;2023-02-28T01:03:00;102484;;;4.94;74.13
57250;BME280;43102;52.014;-0.680;2023-02-28T01:04:00;102480;;;4.96;74.17
57250;BME280;43102;52.014;-0.680;2023-02-28T01:05:00;102480;;;4.96;74.17
57250;BME280;43102;52.014;-0.680;2023-02-28T01:06:00;102480;;;4.96;74.17
57250;BME280;43102;52.014;-0.680;2023-02-28T01:07:00;102480;;;4.96;74.17
57250;BME280;43102;52.014;-0.680;2023-02-28T01:08:00;102480;;;4.96;74.17
57250;BME280;43102;52.014;-0.680;2023-02-28T01:09:00;102486;;;4.98;74.48
57250;BME280;43102;52.014;-0.680;2023-02-28T01:10:00;102486;;;4.98;74.48
57250;BME280;43102;52.014;-0.680;2023-02-28T01:11:06;102486;;;4.98;74.48
57250;BME280;43102;52.014;-0.680;2023-02-28T01:12:00;102486;;;4.98;74.48
57250;BME280;43102;52.014;-0.680;2023-02-28T01:13:00;102486;;;4.98;74.48
57250;BME280;43102;52.014;-0.680;2023-02-28T01:14:00;102486;;;5.02;74.51
57250;BME280;43102;52.014;-0.680;2023-02-28T01:15:00;102486;;;5.02;74.51
57250;BME280;43102;52.014;-0.680;2023-02-28T01:16:00;102486;;;5.02;74.51
57250;BME280;43102;52.014;-0.680;2023-02-28T01:17:00;102486;;;5.02;74.51
57250;BME280;43102;52.014;-0.680;2023-02-28T01:18:00;102486;;;5.02;74.51
57250;BME280;43102;52.014;-0.680;2023-02-28T01:19:00;102491;;;5.05;74.68
57250;BME280;43102;52.014;-0.680;2023-02-28T01:20:00;102491;;;5.05;74.68
57250;BME280;43102;52.014;-0.680;2023-02-28T01:21:04;102491;;;5.05;74.68
57250;BME280;43102;52.014;-0.680;2023-02-28T01:22:01;102491;;;5.05;74.68
57250;BME280;43102;52.014;-0.680;2023-02-28T01:23:00;102491;;;5.05;74.68
57250;BME280;43102;52.014;-0.680;2023-02-28T01:24:00;102491;;;5.07;74.96
57250;BME280;43102;52.014;-0.680;2023-02-28T01:25:00;102491;;;5.07;74.96
57250;BME280;43102;52.014;-0.680;2023-02-28T01:26:08;102491;;;5.07;74.96
57250;BME280;43102;52.014;-0.680;2023-02-28T01:27:00;102491;;;5.07;74.96
57250;BME280;43102;52.014;-0.680;2023-02-28T01:28:00;102491;;;5.07;74.96
57250;BME280;43102;52.014;-0.680;2023-02-28T01:29:00;102497;;;5.15;74.83
57250;BME280;43102;52.014;-0.680;2023-02-28T01:30:00;102497;;;5.15;74.83
57250;BME280;43102;52.014;-0.680;2023-02-28T01:31:00;102497;;;5.15;74.83
57250;BME280;43102;52.014;-0.680;2023-02-28T01:32:00;102497;;;5.15;74.83
57250;BME280;43102;52.014;-0.680;2023-02-28T01:33:00;102497;;;5.15;74.83
57250;BME280;43102;52.014;-0.680;2023-02-28T01:34:00;102490;;;5.17;74.71
57250;BME280;43102;52.014;-0.680;2023-02-28T01:35:00;102490;;;5.17;74.71
57250;BME280;43102;52.014;-0.680;2023-02-28T01:36:02;102490;;;5.17;74.71
57250;BME280;43102;52.014;-0.680;2023-02-28T01:37:00;102490;;;5.17;74.71
57250;BME280;43102;52.014;-0.680;2023-02-28T01:38:00;102490;;;5.17;74.71
57250;BME280;43102;52.014;-0.680;2023-02-28T01:39:00;102494;;;5.16;74.80
57250;BME280;43102;52.014;-0.680;2023-02-28T01:40:00;102494;;;5.16;74.80
57250;BME280;43102;52.014;-0.680;2023-02-28T01:41:00;102494;;;5.16;74.80
57250;BME280;43102;52.014;-0.680;2023-02-28T01:42:00;102494;;;5.16;74.80
57250;BME280;43102;52.014;-0.680;2023-02-28T01:43:00;102494;;;5.16;74.80
57250;BME280;43102;52.014;-0.680;2023-02-28T01:45:02;102491;;;5.19;74.76
57250;BME280;43102;52.014;-0.680;2023-02-28T01:46:00;102491;;;5.19;74.76
57250;BME280;43102;52.014;-0.680;2023-02-28T01:47:00;102491;;;5.19;74.76
57250;BME280;43102;52.014;-0.680;2023-02-28T01:48:02;102491;;;5.19;74.76
57250;BME280;43102;52.014;-0.680;2023-02-28T01:49:02;102496;;;5.22;74.76
57250;BME280;43102;52.014;-0.680;2023-02-28T01:50:01;102496;;;5.22;74.76
57250;BME280;43102;52.014;-0.680;2023-02-28T01:51:01;102496;;;5.22;74.76
57250;BME280;43102;52.014;-0.680;2023-02-28T01:52:00;102496;;;5.22;74.76
57250;BME280;43102;52.014;-0.680;2023-02-28T01:53:00;102496;;;5.22;74.76
57250;BME280;43102;52.014;-0.680;2023-02-28T01:54:04;102491;;;5.23;74.70
57250;BME280;43102;52.014;-0.680;2023-02-28T01:55:00;102491;;;5.23;74.70
57250;BME280;43102;52.014;-0.680;2023-02-28T01:56:00;102491;;;5.23;74.70
57250;BME280;43102;52.014;-0.680;2023-02-28T01:58:01;102491;;;5.23;74.70
57250;BME280;43102;52.014;-0.680;2023-02-28T01:59:00;102497;;;5.23;74.64
57250;BME280;43102;52.014;-0.680;2023-02-28T02:00:00;102497;;;5.23;74.64
57250;BME280;43102;52.014;-0.680;2023-02-28T02:01:00;102497;;;5.23;74.64
57250;BME280;43102;52.014;-0.680;2023-02-28T02:02:00;102497;;;5.23;74.64
57250;BME280;43102;52.014;-0.680;2023-02-28T02:03:01;102497;;;5.23;74.64
57250;BME280;43102;52.014;-0.680;2023-02-28T02:04:01;102498;;;5.24;74.59
57250;BME280;43102;52.014;-0.680;2023-02-28T02:05:10;102498;;;5.24;74.59
57250;BME280;43102;52.014;-0.680;2023-02-28T02:06:00;102498;;;5.24;74.59
57250;BME280;43102;52.014;-0.680;2023-02-28T02:07:00;102498;;;5.24;74.59
57250;BME280;43102;52.014;-0.680;2023-02-28T02:08:03;102498;;;5.24;74.59
57250;BME280;43102;52.014;-0.680;2023-02-28T02:09:00;102493;;;5.24;74.44
57250;BME280;43102;52.014;-0.680;2023-02-28T02:10:01;102493;;;5.24;74.44
57250;BME280;43102;52.014;-0.680;2023-02-28T02:11:01;102493;;;5.24;74.44
57250;BME280;43102;52.014;-0.680;2023-02-28T02:12:00;102493;;;5.24;74.44
57250;BME280;43102;52.014;-0.680;2023-02-28T02:14:10;102495;;;5.19;74.54
57250;BME280;43102;52.014;-0.680;2023-02-28T02:15:05;102495;;;5.19;74.54
57250;BME280;43102;52.014;-0.680;2023-02-28T02:17:05;102495;;;5.19;74.54
57250;BME280;43102;52.014;-0.680;2023-02-28T02:18:04;102495;;;5.19;74.54
57250;BME280;43102;52.014;-0.680;2023-02-28T02:19:09;102500;;;5.16;74.62
57250;BME280;43102;52.014;-0.680;2023-02-28T02:24:08;102496;;;5.14;74.79
57250;BME280;43102;52.014;-0.680;2023-02-28T02:27:10;102496;;;5.14;74.79
57250;BME280;43102;52.014;-0.680;2023-02-28T02:35:10;102485;;;5.12;74.88
57250;BME280;43102;52.014;-0.680;2023-02-28T02:36:02;102485;;;5.12;74.88
57250;BME280;43102;52.014;-0.680;2023-02-28T02:42:00;102486;;;5.11;74.71
57250;BME280;43102;52.014;-0.680;2023-02-28T02:43:01;102486;;;5.11;74.71
57250;BME280;43102;52.014;-0.680;2023-02-28T02:45:01;102487;;;5.07;74.73
57250;BME280;43102;52.014;-0.680;2023-02-28T02:46:02;102487;;;5.07;74.73
57250;BME280;43102;52.014;-0.680;2023-02-28T02:47:02;102487;;;5.07;74.73
57250;BME280;43102;52.014;-0.680;2023-02-28T02:48:00;102487;;;5.07;74.73
57250;BME280;43102;52.014;-0.680;2023-02-28T02:49:00;102480;;;5.09;74.61
57250;BME280;43102;52.014;-0.680;2023-02-28T02:50:01;102480;;;5.09;74.61
57250;BME280;43102;52.014;-0.680;2023-02-28T02:51:01;102480;;;5.09;74.61
57250;BME280;43102;52.014;-0.680;2023-02-28T02:52:02;102480;;;5.09;74.61
57250;BME280;43102;52.014;-0.680;2023-02-28T02:53:00;102480;;;5.09;74.61
57250;BME280;43102;52.014;-0.680;2023-02-28T02:54:02;102481;;;5.04;74.65
57250;BME280;43102;52.014;-0.680;2023-02-28T02:55:00;102481;;;5.04;74.65
57250;BME280;43102;52.014;-0.680;2023-02-28T02:56:00;102481;;;5.04;74.65
57250;BME280;43102;52.014;-0.680;2023-02-28T02:57:01;102481;;;5.04;74.65
57250;BME280;43102;52.014;-0.680;2023-02-28T02:58:02;102481;;;5.04;74.65
57250;BME280;43102;52.014;-0.680;2023-02-28T02:59:01;102479;;;5.00;74.55
57250;BME280;43102;52.014;-0.680;2023-02-28T03:00:00;102479;;;5.00;74.55
57250;BME280;43102;52.014;-0.680;2023-02-28T03:01:00;102479;;;5.00;74.55
57250;BME280;43102;52.014;-0.680;2023-02-28T03:02:01;102479;;;5.00;74.55
57250;BME280;43102;52.014;-0.680;2023-02-28T03:03:00;102479;;;5.00;74.55
57250;BME280;43102;52.014;-0.680;2023-02-28T03:04:01;102475;;;5.00;74.50
57250;BME280;43102;52.014;-0.680;2023-02-28T03:05:01;102475;;;5.00;74.50
57250;BME280;43102;52.014;-0.680;2023-02-28T03:06:00;102475;;;5.00;74.50
57250;BME280;43102;52.014;-0.680;2023-02-28T03:07:00;102475;;;5.00;74.50
57250;BME280;43102;52.014;-0.680;2023-02-28T03:08:02;102475;;;5.00;74.50
57250;BME280;43102;52.014;-0.680;2023-02-28T03:09:00;102466;;;4.97;74.19
57250;BME280;43102;52.014;-0.680;2023-02-28T03:10:00;102466;;;4.97;74.19
57250;BME280;43102;52.014;-0.680;2023-02-28T03:11:00;102466;;;4.97;74.19
57250;BME280;43102;52.014;-0.680;2023-02-28T03:12:00;102466;;;4.97;74.19
57250;BME280;43102;52.014;-0.680;2023-02-28T03:13:05;102466;;;4.97;74.19
57250;BME280;43102;52.014;-0.680;2023-02-28T03:15:05;102460;;;4.91;74.21
57250;BME280;43102;52.014;-0.680;2023-02-28T03:16:05;102460;;;4.91;74.21
57250;BME280;43102;52.014;-0.680;2023-02-28T03:18:01;102460;;;4.91;74.21
57250;BME280;43102;52.014;-0.680;2023-02-28T03:19:03;102460;;;4.86;74.21
57250;BME280;43102;52.014;-0.680;2023-02-28T03:20:17;102460;;;4.86;74.21
57250;BME280;43102;52.014;-0.680;2023-02-28T03:21:06;102460;;;4.86;74.21
57250;BME280;43102;52.014;-0.680;2023-02-28T03:22:04;102460;;;4.86;74.21
57250;BME280;43102;52.014;-0.680;2023-02-28T03:23:08;102460;;;4.86;74.21
57250;BME280;43102;52.014;-0.680;2023-02-28T03:24:04;102470;;;4.79;74.26
57250;BME280;43102;52.014;-0.680;2023-02-28T03:27:09;102470;;;4.79;74.26
57250;BME280;43102;52.014;-0.680;2023-02-28T03:28:03;102470;;;4.79;74.26
57250;BME280;43102;52.014;-0.680;2023-02-28T03:29:02;102472;;;4.78;74.28
57250;BME280;43102;52.014;-0.680;2023-02-28T03:30:01;102472;;;4.78;74.28
57250;BME280;43102;52.014;-0.680;2023-02-28T03:31:07;102472;;;4.78;74.28
57250;BME280;43102;52.014;-0.680;2023-02-28T03:32:04;102472;;;4.78;74.28
57250;BME280;43102;52.014;-0.680;2023-02-28T03:33:03;102472;;;4.78;74.28
57250;BME280;43102;52.014;-0.680;2023-02-28T03:34:03;102465;;;4.75;74.32
57250;BME280;43102;52.014;-0.680;2023-02-28T03:35:03;102465;;;4.75;74.32
57250;BME280;43102;52.014;-0.680;2023-02-28T03:36:02;102465;;;4.75;74.32
57250;BME280;43102;52.014;-0.680;2023-02-28T03:37:02;102465;;;4.75;74.32
57250;BME280;43102;52.014;-0.680;2023-02-28T03:38:01;102465;;;4.75;74.32
57250;BME280;43102;52.014;-0.680;2023-02-28T03:39:04;102466;;;4.76;74.37
57250;BME280;43102;52.014;-0.680;2023-02-28T03:40:01;102466;;;4.76;74.37
57250;BME280;43102;52.014;-0.680;2023-02-28T03:41:02;102466;;;4.76;74.37
57250;BME280;43102;52.014;-0.680;2023-02-28T03:42:01;102466;;;4.76;74.37
57250;BME280;43102;52.014;-0.680;2023-02-28T03:43:02;102466;;;4.76;74.37
57250;BME280;43102;52.014;-0.680;2023-02-28T03:44:02;102468;;;4.82;74.45
57250;BME280;43102;52.014;-0.680;2023-02-28T03:45:00;102468;;;4.82;74.45
57250;BME280;43102;52.014;-0.680;2023-02-28T03:46:00;102468;;;4.82;74.45
57250;BME280;43102;52.014;-0.680;2023-02-28T03:47:02;102468;;;4.82;74.45
57250;BME280;43102;52.014;-0.680;2023-02-28T03:48:17;102468;;;4.82;74.45
57250;BME280;43102;52.014;-0.680;2023-02-28T03:49:02;102463;;;4.82;74.51
57250;BME280;43102;52.014;-0.680;2023-02-28T03:50:01;102463;;;4.82;74.51
57250;BME280;43102;52.014;-0.680;2023-02-28T03:51:00;102463;;;4.82;74.51
57250;BME280;43102;52.014;-0.680;2023-02-28T03:52:00;102463;;;4.82;74.51
57250;BME280;43102;52.014;-0.680;2023-02-28T03:53:03;102463;;;4.82;74.51
57250;BME280;43102;52.014;-0.680;2023-02-28T03:54:02;102466;;;4.87;74.60
57250;BME280;43102;52.014;-0.680;2023-02-28T03:55:01;102466;;;4.87;74.60
57250;BME280;43102;52.014;-0.680;2023-02-28T03:56:17;102466;;;4.87;74.60
57250;BME280;43102;52.014;-0.680;2023-02-28T03:57:03;102466;;;4.87;74.60
57250;BME280;43102;52.014;-0.680;2023-02-28T03:59:02;102466;;;4.88;74.74
57250;BME280;43102;52.014;-0.680;2023-02-28T04:00:03;102466;;;4.88;74.74
57250;BME280;43102;52.014;-0.680;2023-02-28T04:01:06;102466;;;4.88;74.74
57250;BME280;43102;52.014;-0.680;2023-02-28T04:02:00;102466;;;4.88;74.74
57250;BME280;43102;52.014;-0.680;2023-02-28T04:03:00;102466;;;4.88;74.74
57250;BME280;43102;52.014;-0.680;2023-02-28T04:04:00;102476;;;4.90;75.03
57250;BME280;43102;52.014;-0.680;2023-02-28T04:05:00;102476;;;4.90;75.03
57250;BME280;43102;52.014;-0.680;2023-02-28T04:06:00;102476;;;4.90;75.03
57250;BME280;43102;52.014;-0.680;2023-02-28T04:07:01;102476;;;4.90;75.03
57250;BME280;43102;52.014;-0.680;2023-02-28T04:08:05;102476;;;4.90;75.03
57250;BME280;43102;52.014;-0.680;2023-02-28T04:09:00;102472;;;4.96;75.19
57250;BME280;43102;52.014;-0.680;2023-02-28T04:10:00;102472;;;4.96;75.19
57250;BME280;43102;52.014;-0.680;2023-02-28T04:11:01;102472;;;4.96;75.19
57250;BME280;43102;52.014;-0.680;2023-02-28T04:12:00;102472;;;4.96;75.19
57250;BME280;43102;52.014;-0.680;2023-02-28T04:13:00;102472;;;4.96;75.19
57250;BME280;43102;52.014;-0.680;2023-02-28T04:14:00;102476;;;5.00;75.36
57250;BME280;43102;52.014;-0.680;2023-02-28T04:15:00;102476;;;5.00;75.36
57250;BME280;43102;52.014;-0.680;2023-02-28T04:16:00;102476;;;5.00;75.36
57250;BME280;43102;52.014;-0.680;2023-02-28T04:17:00;102476;;;5.00;75.36
57250;BME280;43102;52.014;-0.680;2023-02-28T04:18:00;102476;;;5.00;75.36
57250;BME280;43102;52.014;-0.680;2023-02-28T04:19:00;102476;;;5.03;75.42
57250;BME280;43102;52.014;-0.680;2023-02-28T04:20:00;102476;;;5.03;75.42
57250;BME280;43102;52.014;-0.680;2023-02-28T04:21:00;102476;;;5.03;75.42
57250;BME280;43102;52.014;-0.680;2023-02-28T04:22:00;102476;;;5.03;75.42
57250;BME280;43102;52.014;-0.680;2023-02-28T04:23:00;102476;;;5.03;75.42
57250;BME280;43102;52.014;-0.680;2023-02-28T04:24:00;102479;;;5.02;75.52
57250;BME280;43102;52.014;-0.680;2023-02-28T04:25:00;102479;;;5.02;75.52
57250;BME280;43102;52.014;-0.680;2023-02-28T04:26:00;102479;;;5.02;75.52
57250;BME280;43102;52.014;-0.680;2023-02-28T04:27:00;102479;;;5.02;75.52
57250;BME280;43102;52.014;-0.680;2023-02-28T04:28:00;102479;;;5.02;75.52
57250;BME280;43102;52.014;-0.680;2023-02-28T04:29:00;102474;;;5.02;75.73
57250;BME280;43102;52.014;-0.680;2023-02-28T04:30:00;102474;;;5.02;75.73
57250;BME280;43102;52.014;-0.680;2023-02-28T04:31:01;102474;;;5.02;75.73
57250;BME280;43102;52.014;-0.680;2023-02-28T04:32:00;102474;;;5.02;75.73
57250;BME280;43102;52.014;-0.680;2023-02-28T04:33:00;102474;;;5.02;75.73
57250;BME280;43102;52.014;-0.680;2023-02-28T04:34:00;102475;;;5.02;76.07
57250;BME280;43102;52.014;-0.680;2023-02-28T04:35:00;102475;;;5.02;76.07
57250;BME280;43102;52.014;-0.680;2023-02-28T04:36:02;102475;;;5.02;76.07
57250;BME280;43102;52.014;-0.680;2023-02-28T04:37:00;102475;;;5.02;76.07
57250;BME280;43102;52.014;-0.680;2023-02-28T04:38:00;102475;;;5.02;76.07
57250;BME280;43102;52.014;-0.680;2023-02-28T04:39:00;102477;;;5.08;76.34
57250;BME280;43102;52.014;-0.680;2023-02-28T04:40:00;102477;;;5.08;76.34
57250;BME280;43102;52.014;-0.680;2023-02-28T04:41:00;102477;;;5.08;76.34
57250;BME280;43102;52.014;-0.680;2023-02-28T04:42:00;102477;;;5.08;76.34
57250;BME280;43102;52.014;-0.680;2023-02-28T04:43:00;102477;;;5.08;76.34
57250;BME280;43102;52.014;-0.680;2023-02-28T04:44:00;102478;;;5.16;76.50
57250;BME280;43102;52.014;-0.680;2023-02-28T04:45:00;102478;;;5.16;76.50
57250;BME280;43102;52.014;-0.680;2023-02-28T04:46:01;102478;;;5.16;76.50
57250;BME280;43102;52.014;-0.680;2023-02-28T04:47:00;102478;;;5.16;76.50
57250;BME280;43102;52.014;-0.680;2023-02-28T04:48:00;102478;;;5.16;76.50
57250;BME280;43102;52.014;-0.680;2023-02-28T04:49:00;102488;;;5.18;76.61
57250;BME280;43102;52.014;-0.680;2023-02-28T04:50:00;102488;;;5.18;76.61
57250;BME280;43102;52.014;-0.680;2023-02-28T04:51:00;102488;;;5.18;76.61
57250;BME280;43102;52.014;-0.680;2023-02-28T04:52:00;102488;;;5.18;76.61
57250;BME280;43102;52.014;-0.680;2023-02-28T04:53:00;102488;;;5.18;76.61
57250;BME280;43102;52.014;-0.680;2023-02-28T04:54:00;102494;;;5.18;77.42
57250;BME280;43102;52.014;-0.680;2023-02-28T04:55:00;102494;;;5.18;77.42
57250;BME280;43102;52.014;-0.680;2023-02-28T04:56:00;102494;;;5.18;77.42
57250;BME280;43102;52.014;-0.680;2023-02-28T04:57:00;102494;;;5.18;77.42
57250;BME280;43102;52.014;-0.680;2023-02-28T04:58:00;102494;;;5.18;77.42
57250;BME280;43102;52.014;-0.680;2023-02-28T04:59:00;102494;;;5.22;78.42
57250;BME280;43102;52.014;-0.680;2023-02-28T05:00:00;102494;;;5.22;78.42
57250;BME280;43102;52.014;-0.680;2023-02-28T05:01:02;102494;;;5.22;78.42
57250;BME280;43102;52.014;-0.680;2023-02-28T05:02:00;102494;;;5.22;78.42
57250;BME280;43102;52.014;-0.680;2023-02-28T05:03:00;102494;;;5.22;78.42
57250;BME280;43102;52.014;-0.680;2023-02-28T05:04:00;102489;;;5.29;78.87
57250;BME280;43102;52.014;-0.680;2023-02-28T05:05:00;102489;;;5.29;78.87
57250;BME280;43102;52.014;-0.680;2023-02-28T05:06:00;102489;;;5.29;78.87
57250;BME280;43102;52.014;-0.680;2023-02-28T05:07:00;102489;;;5.29;78.87
57250;BME280;43102;52.014;-0.680;2023-02-28T05:08:00;102489;;;5.29;78.87
57250;BME280;43102;52.014;-0.680;2023-02-28T05:09:00;102492;;;5.31;79.83
57250;BME280;43102;52.014;-0.680;2023-02-28T05:10:00;102492;;;5.31;79.83
57250;BME280;43102;52.014;-0.680;2023-02-28T05:11:00;102492;;;5.31;79.83
57250;BME280;43102;52.014;-0.680;2023-02-28T05:12:00;102492;;;5.31;79.83
57250;BME280;43102;52.014;-0.680;2023-02-28T05:13:00;102492;;;5.31;79.83
57250;BME280;43102;52.014;-0.680;2023-02-28T05:14:02;102496;;;5.41;79.93
57250;BME280;43102;52.014;-0.680;2023-02-28T05:15:00;102496;;;5.41;79.93
57250;BME280;43102;52.014;-0.680;2023-02-28T05:16:00;102496;;;5.41;79.93
57250;BME280;43102;52.014;-0.680;2023-02-28T05:17:00;102496;;;5.41;79.93
57250;BME280;43102;52.014;-0.680;2023-02-28T05:18:00;102496;;;5.41;79.93
57250;BME280;43102;52.014;-0.680;2023-02-28T05:19:00;102488;;;5.50;79.48
57250;BME280;43102;52.014;-0.680;2023-02-28T05:20:00;102488;;;5.50;79.48
57250;BME280;43102;52.014;-0.680;2023-02-28T05:21:00;102488;;;5.50;79.48
57250;BME280;43102;52.014;-0.680;2023-02-28T05:22:00;102488;;;5.50;79.48
57250;BME280;43102;52.014;-0.680;2023-02-28T05:23:00;102488;;;5.50;79.48
57250;BME280;43102;52.014;-0.680;2023-02-28T05:24:01;102493;;;5.52;79.59
57250;BME280;43102;52.014;-0.680;2023-02-28T05:25:00;102493;;;5.52;79.59
57250;BME280;43102;52.014;-0.680;2023-02-28T05:26:00;102493;;;5.52;79.59
57250;BME280;43102;52.014;-0.680;2023-02-28T05:27:00;102493;;;5.52;79.59
57250;BME280;43102;52.014;-0.680;2023-02-28T05:28:00;102493;;;5.52;79.59
57250;BME280;43102;52.014;-0.680;2023-02-28T05:29:00;102490;;;5.57;79.55
57250;BME280;43102;52.014;-0.680;2023-02-28T05:30:00;102490;;;5.57;79.55
57250;BME280;43102;52.014;-0.680;2023-02-28T05:31:00;102490;;;5.57;79.55
57250;BME280;43102;52.014;-0.680;2023-02-28T05:32:00;102490;;;5.57;79.55
57250;BME280;43102;52.014;-0.680;2023-02-28T05:33:00;102490;;;5.57;79.55
57250;BME280;43102;52.014;-0.680;2023-02-28T05:34:00;102496;;;5.52;80.18
57250;BME280;43102;52.014;-0.680;2023-02-28T05:35:00;102496;;;5.52;80.18
57250;BME280;43102;52.014;-0.680;2023-02-28T05:36:00;102496;;;5.52;80.18
57250;BME280;43102;52.014;-0.680;2023-02-28T05:37:00;102496;;;5.52;80.18
57250;BME280;43102;52.014;-0.680;2023-02-28T05:38:00;102496;;;5.52;80.18
57250;BME280;43102;52.014;-0.680;2023-02-28T05:39:00;102495;;;5.49;80.76
57250;BME280;43102;52.014;-0.680;2023-02-28T05:40:00;102495;;;5.49;80.76
57250;BME280;43102;52.014;-0.680;2023-02-28T05:41:00;102495;;;5.49;80.76
57250;BME280;43102;52.014;-0.680;2023-02-28T05:42:00;102495;;;5.49;80.76
57250;BME280;43102;52.014;-0.680;2023-02-28T05:43:00;102495;;;5.49;80.76
57250;BME280;43102;52.014;-0.680;2023-02-28T05:44:00;102499;;;5.64;80.38
57250;BME280;43102;52.014;-0.680;2023-02-28T05:45:00;102499;;;5.64;80.38
57250;BME280;43102;52.014;-0.680;2023-02-28T05:46:02;102499;;;5.64;80.38
57250;BME280;43102;52.014;-0.680;2023-02-28T05:47:00;102499;;;5.64;80.38
57250;BME280;43102;52.014;-0.680;2023-02-28T05:48:00;102499;;;5.64;80.38
57250;BME280;43102;52.014;-0.680;2023-02-28T05:49:00;102496;;;5.62;80.52
57250;BME280;43102;52.014;-0.680;2023-02-28T05:50:00;102496;;;5.62;80.52
57250;BME280;43102;52.014;-0.680;2023-02-28T05:51:00;102496;;;5.62;80.52
57250;BME280;43102;52.014;-0.680;2023-02-28T05:52:00;102496;;;5.62;80.52
57250;BME280;43102;52.014;-0.680;2023-02-28T05:53:00;102496;;;5.62;80.52
57250;BME280;43102;52.014;-0.680;2023-02-28T05:54:00;102500;;;5.71;80.20